Terminal Aerodrome Forecast
Issued by NWS

Home | Current Version | Previous Version | Text Only | Print | Product List | Glossary On
Versions: 1 2 3 4 5 6 7 8 9 10 11 12 13 14 15
000
FTUS42 KTAE 101722
TAFVLD
TAF
KVLD 101722Z 1018/1118 04008KT P6SM SKC
     FM102300 04003KT P6SM SKC
     FM110600 06005KT P6SM BKN015=

USA.gov is the U.S. government's official web portal to all federal, state and local government web resources and services.